createdAt,value
2023-04-28T00:00:16.426Z,65.04
2023-04-28T00:02:45.973Z,65.90
2023-04-28T00:05:14.870Z,66.51
2023-04-28T00:07:43.625Z,65.96
2023-04-28T00:10:12.948Z,65.60
2023-04-28T00:12:41.714Z,66.53
2023-04-28T00:15:11.238Z,65.82
2023-04-28T00:17:41.316Z,66.05
2023-04-28T00:20:11.960Z,66.22
2023-04-28T00:22:40.696Z,66.85
2023-04-28T00:25:10.692Z,66.91
2023-04-28T00:27:39.365Z,67.64
2023-04-28T00:30:10.329Z,68.05
2023-04-28T00:32:40.464Z,68.38
2023-04-28T00:35:10.197Z,67.45
2023-04-28T00:37:39.603Z,67.55
2023-04-28T00:40:10.092Z,68.01
2023-04-28T00:42:38.894Z,68.38
2023-04-28T00:45:08.838Z,68.74
2023-04-28T00:47:40.726Z,68.13
2023-04-28T00:50:10.691Z,68.08
2023-04-28T00:52:40.680Z,67.31
2023-04-28T00:55:11.712Z,66.93
2023-04-28T00:57:40.627Z,66.95
2023-04-28T01:00:11.212Z,67.05
2023-04-28T01:02:41.499Z,66.46
2023-04-28T01:05:11.347Z,66.10
2023-04-28T01:07:40.038Z,66.09
2023-04-28T01:10:11.403Z,66.88
2023-04-28T01:12:40.075Z,66.07
2023-04-28T01:15:16.610Z,66.22
2023-04-28T01:17:48.725Z,66.91
2023-04-28T01:20:17.556Z,66.96
2023-04-28T01:22:46.449Z,66.10
2023-04-28T01:25:17.233Z,65.87
2023-04-28T01:27:46.022Z,65.92
2023-04-28T01:30:14.939Z,66.52
2023-04-28T01:32:43.842Z,67.21
2023-04-28T01:35:12.623Z,66.39
2023-04-28T01:37:41.291Z,66.43
2023-04-28T01:40:11.476Z,67.83
2023-04-28T01:42:41.712Z,67.45
2023-04-28T01:45:12.144Z,67.66
2023-04-28T01:47:41.015Z,67.97
2023-04-28T01:50:10.658Z,67.58
2023-04-28T01:52:39.445Z,68.11
2023-04-28T01:55:09.311Z,67.40
2023-04-28T01:57:40.888Z,67.14
2023-04-28T02:00:11.303Z,66.72
2023-04-28T02:02:50.204Z,67.57
2023-04-28T02:05:19.176Z,67.25
2023-04-28T02:07:50.004Z,67.34
2023-04-28T02:10:18.688Z,67.17
2023-04-28T02:12:48.760Z,66.85
2023-04-28T02:15:19.611Z,66.79
2023-04-28T02:17:49.065Z,67.55
2023-04-28T02:20:18.185Z,67.86
2023-04-28T02:22:46.866Z,68.36
2023-04-28T02:25:15.788Z,68.38
2023-04-28T02:27:44.438Z,68.06
2023-04-28T02:30:15.118Z,67.90
2023-04-28T02:32:43.873Z,68.12
2023-04-28T02:35:12.639Z,68.72
2023-04-28T02:37:41.440Z,67.98
2023-04-28T02:40:11.348Z,67.77
2023-04-28T02:42:40.048Z,67.67
2023-04-28T02:45:09.565Z,68.57
2023-04-28T02:47:39.721Z,68.35
2023-04-28T02:50:10.572Z,68.73
2023-04-28T02:52:40.498Z,69.11
2023-04-28T02:55:10.215Z,68.79
2023-04-28T02:57:38.875Z,69.10
2023-04-28T03:00:10.451Z,68.08
2023-04-28T03:02:48.075Z,67.86
2023-04-28T03:05:17.081Z,68.36
2023-04-28T03:07:45.838Z,68.62
2023-04-28T03:10:14.832Z,68.34
2023-04-28T03:12:44.035Z,67.93
2023-04-28T03:15:14.172Z,67.80
2023-04-28T03:17:43.431Z,67.95
2023-04-28T03:20:14.413Z,68.07
2023-04-28T03:22:43.756Z,68.75
2023-04-28T03:25:12.489Z,69.30
2023-04-28T03:27:49.287Z,70.36
2023-04-28T03:30:18.052Z,70.31
2023-04-28T03:32:48.118Z,69.63
2023-04-28T03:35:20.386Z,68.85
2023-04-28T03:37:49.382Z,68.58
2023-04-28T03:40:18.322Z,68.37
2023-04-28T03:43:18.818Z,68.27
2023-04-28T03:46:22.969Z,68.69
2023-04-28T03:48:53.341Z,69.04
2023-04-28T03:51:23.535Z,69.88
2023-04-28T03:53:52.737Z,70.27
2023-04-28T03:56:21.925Z,70.11
2023-04-28T03:58:50.908Z,69.95
2023-04-28T04:01:19.860Z,69.51
2023-04-28T04:03:50.692Z,69.46
2023-04-28T04:06:20.815Z,69.03
2023-04-28T04:08:51.483Z,68.93
2023-04-28T04:11:20.343Z,69.22
2023-04-28T04:13:49.071Z,68.96
2023-04-28T04:16:18.980Z,68.37
2023-04-28T04:18:47.947Z,68.43
2023-04-28T04:21:22.353Z,68.60
2023-04-28T04:23:54.849Z,68.54
2023-04-28T04:26:23.982Z,68.27
2023-04-28T04:28:56.765Z,68.23
2023-04-28T04:31:27.574Z,68.74
2023-04-28T04:33:56.528Z,68.46
2023-04-28T04:36:26.626Z,68.34
2023-04-28T04:39:00.210Z,68.05
2023-04-28T04:41:29.526Z,68.08
2023-04-28T04:44:15.469Z,68.19
2023-04-28T04:46:49.413Z,67.73
2023-04-28T04:49:20.738Z,68.05
2023-04-28T04:51:59.778Z,68.03
2023-04-28T04:54:32.978Z,68.10
2023-04-28T04:57:04.933Z,68.13
2023-04-28T05:00:07.572Z,68.07
2023-04-28T05:02:36.677Z,67.90
2023-04-28T05:05:20.537Z,67.61
2023-04-28T05:08:03.805Z,67.25
2023-04-28T05:10:34.062Z,67.66
2023-04-28T05:13:04.726Z,67.59
2023-04-28T05:15:33.831Z,67.47
2023-04-28T05:18:17.658Z,67.16
2023-04-28T05:20:47.195Z,67.01
2023-04-28T05:23:17.022Z,67.70
2023-04-28T05:25:47.340Z,68.57
2023-04-28T05:28:16.133Z,68.89
2023-04-28T05:30:46.262Z,68.78
2023-04-28T05:33:15.493Z,68.39
2023-04-28T05:35:44.850Z,67.97
2023-04-28T05:38:13.754Z,67.13
2023-04-28T05:40:44.513Z,67.12
2023-04-28T05:43:16.042Z,66.98
2023-04-28T05:45:45.388Z,66.45
2023-04-28T05:48:14.337Z,66.34
2023-04-28T05:50:43.344Z,66.42
2023-04-28T05:53:12.966Z,66.79
2023-04-28T05:55:42.233Z,65.94
2023-04-28T05:58:11.521Z,66.46
2023-04-28T06:00:41.722Z,66.36
2023-04-28T06:03:11.518Z,65.77
2023-04-28T06:05:40.998Z,65.51
2023-04-28T06:08:09.871Z,65.03
2023-04-28T06:10:39.368Z,65.10
2023-04-28T06:13:09.220Z,64.50
2023-04-28T06:15:38.253Z,64.17
2023-04-28T06:18:09.807Z,63.71
2023-04-28T06:20:38.750Z,63.90
2023-04-28T06:23:07.583Z,63.46
2023-04-28T06:25:36.459Z,62.66
2023-04-28T06:28:06.385Z,62.90
2023-04-28T06:30:36.279Z,62.90
2023-04-28T06:33:05.608Z,62.48
2023-04-28T06:35:36.623Z,61.97
2023-04-28T06:38:05.291Z,61.34
2023-04-28T06:40:34.003Z,61.70
2023-04-28T06:43:05.789Z,61.67
2023-04-28T06:45:42.992Z,61.35
2023-04-28T06:48:11.935Z,61.06
2023-04-28T06:50:43.936Z,60.88
2023-04-28T06:53:13.290Z,61.14
2023-04-28T06:55:42.107Z,60.63
2023-04-28T06:58:11.465Z,59.88
2023-04-28T07:00:40.205Z,59.99
2023-04-28T07:03:09.329Z,59.18
2023-04-28T07:05:38.274Z,58.74
2023-04-28T07:08:08.545Z,59.50
2023-04-28T07:10:37.396Z,59.07
2023-04-28T07:13:06.048Z,59.58
2023-04-28T07:15:34.797Z,59.23
2023-04-28T07:18:03.805Z,57.82
2023-04-28T07:20:32.544Z,58.46
2023-04-28T07:23:01.184Z,58.37
2023-04-28T07:25:31.597Z,58.43
2023-04-28T07:28:00.409Z,58.38
2023-04-28T07:30:29.055Z,57.44
2023-04-28T07:32:57.853Z,57.41
2023-04-28T07:35:26.745Z,57.37
2023-04-28T07:37:56.133Z,57.28
2023-04-28T07:40:25.120Z,56.58
2023-04-28T07:42:55.249Z,56.54
2023-04-28T07:45:24.084Z,55.61
2023-04-28T07:47:52.921Z,55.32
2023-04-28T07:50:21.690Z,55.04
2023-04-28T07:52:50.470Z,55.26
2023-04-28T07:55:19.241Z,54.99
2023-04-28T07:57:49.606Z,55.60
2023-04-28T08:00:20.226Z,54.99
2023-04-28T08:02:49.232Z,55.14
2023-04-28T08:05:18.925Z,54.30
2023-04-28T08:07:47.800Z,55.27
2023-04-28T08:10:16.676Z,52.92
2023-04-28T08:12:46.324Z,51.79
2023-04-28T08:15:16.698Z,49.76
2023-04-28T08:17:48.503Z,50.64
2023-04-28T08:20:21.115Z,49.72
2023-04-28T08:22:51.992Z,50.01
2023-04-28T08:25:21.194Z,50.21
2023-04-28T08:27:49.867Z,50.54
2023-04-28T08:30:18.569Z,49.92
2023-04-28T08:32:48.993Z,51.05
2023-04-28T08:35:19.363Z,50.93
2023-04-28T08:37:49.891Z,51.04
2023-04-28T08:40:19.011Z,51.44
2023-04-28T08:42:48.605Z,51.67
2023-04-28T08:45:19.844Z,50.25
2023-04-28T08:47:53.199Z,50.48
2023-04-28T08:50:24.104Z,49.75
2023-04-28T08:52:55.800Z,49.90
2023-04-28T08:55:27.343Z,48.71
2023-04-28T08:57:57.446Z,47.53
2023-04-28T09:00:27.100Z,47.47
2023-04-28T09:03:00.305Z,49.03
2023-04-28T09:05:30.087Z,48.25
2023-04-28T09:07:59.805Z,48.32
2023-04-28T09:10:28.677Z,47.51
2023-04-28T09:12:59.122Z,47.38
2023-04-28T09:15:33.900Z,46.74
2023-04-28T09:18:06.552Z,45.84
2023-04-28T09:20:37.304Z,45.75
2023-04-28T09:23:18.511Z,46.44
2023-04-28T09:26:04.625Z,44.92
2023-04-28T09:28:37.260Z,44.93
2023-04-28T09:31:06.692Z,43.30
2023-04-28T09:33:36.974Z,44.39
2023-04-28T09:36:06.649Z,45.14
2023-04-28T09:38:46.124Z,44.15
2023-04-28T09:41:14.917Z,43.72
2023-04-28T09:43:43.612Z,44.53
2023-04-28T09:46:12.340Z,44.55
2023-04-28T09:48:43.099Z,45.95
2023-04-28T09:51:13.145Z,47.05
2023-04-28T09:53:42.255Z,46.72
2023-04-28T09:56:12.056Z,46.84
2023-04-28T09:58:45.227Z,47.77
2023-04-28T10:01:14.669Z,48.29
2023-04-28T10:03:45.991Z,48.88
2023-04-28T10:06:14.969Z,50.37
2023-04-28T10:08:45.571Z,51.07
2023-04-28T10:11:14.493Z,52.36
2023-04-28T10:13:44.028Z,53.93
2023-04-28T10:16:14.370Z,56.39
2023-04-28T10:18:46.465Z,57.78
2023-04-28T10:21:19.866Z,58.52
2023-04-28T10:24:06.096Z,60.54
2023-04-28T10:27:11.317Z,60.96
2023-04-28T10:29:40.138Z,61.90
2023-04-28T10:32:24.081Z,64.04
2023-04-28T10:35:15.280Z,64.60
2023-04-28T10:38:12.373Z,64.35
2023-04-28T10:40:43.614Z,63.49
2023-04-28T10:43:14.359Z,64.31
2023-04-28T10:46:06.163Z,66.42
2023-04-28T10:49:00.397Z,68.20
2023-04-28T10:51:39.480Z,66.99
2023-04-28T10:54:19.455Z,67.54
2023-04-28T10:57:23.056Z,66.26
2023-04-28T10:59:52.689Z,65.38
2023-04-28T11:02:51.414Z,64.65
2023-04-28T11:05:21.802Z,66.50
2023-04-28T11:08:36.838Z,66.93
2023-04-28T11:11:17.488Z,67.66
2023-04-28T11:13:48.226Z,68.63
2023-04-28T11:16:19.943Z,68.03
2023-04-28T11:19:05.529Z,68.86
2023-04-28T11:21:35.995Z,69.52
2023-04-28T11:24:12.683Z,70.21
2023-04-28T11:26:42.785Z,69.83
2023-04-28T11:29:13.167Z,69.61
2023-04-28T11:31:42.642Z,72.53
2023-04-28T11:34:14.534Z,71.88
2023-04-28T11:36:44.079Z,70.05
2023-04-28T11:39:17.655Z,71.27
2023-04-28T11:41:47.870Z,70.83
2023-04-28T11:44:19.341Z,70.40
2023-04-28T11:46:56.022Z,70.89
2023-04-28T11:49:28.373Z,72.14
2023-04-28T11:51:57.634Z,74.42
2023-04-28T11:54:30.203Z,72.86
2023-04-28T11:57:01.268Z,74.55
2023-04-28T11:59:33.883Z,74.86
2023-04-28T12:02:04.964Z,75.54
2023-04-28T12:04:36.581Z,75.54
2023-04-28T12:07:10.425Z,74.33
2023-04-28T12:09:43.899Z,75.25
2023-04-28T12:12:17.197Z,74.42
2023-04-28T12:15:01.856Z,74.71
2023-04-28T12:17:33.176Z,73.68
2023-04-28T12:20:07.095Z,73.14
2023-04-28T12:22:47.626Z,72.83
2023-04-28T12:25:19.497Z,73.83
2023-04-28T12:28:02.638Z,71.79
2023-04-28T12:30:33.626Z,71.65
2023-04-28T12:33:02.799Z,70.33
2023-04-28T12:35:33.295Z,70.32
2023-04-28T12:38:02.699Z,70.24
2023-04-28T12:40:32.827Z,71.07
2023-04-28T12:43:01.743Z,70.82
2023-04-28T12:45:31.393Z,71.53
2023-04-28T12:48:00.557Z,71.62
2023-04-28T12:50:32.382Z,71.94
2023-04-28T12:53:01.245Z,72.16
2023-04-28T12:55:32.424Z,71.50
2023-04-28T12:58:01.086Z,70.89
2023-04-28T13:00:29.855Z,72.11
2023-04-28T13:02:59.063Z,70.42
2023-04-28T13:05:28.541Z,70.06
2023-04-28T13:07:57.452Z,68.53
2023-04-28T13:10:26.795Z,68.88
2023-04-28T13:12:58.544Z,67.33
2023-04-28T13:15:28.618Z,67.30
2023-04-28T13:18:01.211Z,67.04
2023-04-28T13:20:30.786Z,67.84
2023-04-28T13:23:00.822Z,69.24
2023-04-28T13:25:31.204Z,68.61
2023-04-28T13:28:02.947Z,69.47
2023-04-28T13:30:33.541Z,70.15
2023-04-28T13:33:03.964Z,70.94
2023-04-28T13:35:33.664Z,71.53
2023-04-28T13:38:04.767Z,70.77
2023-04-28T13:40:35.846Z,70.46
2023-04-28T13:43:07.984Z,71.13
2023-04-28T13:45:40.896Z,71.02
2023-04-28T13:48:10.693Z,70.80
2023-04-28T13:50:41.894Z,71.18
2023-04-28T13:53:11.232Z,69.91
2023-04-28T13:55:40.340Z,69.78
2023-04-28T13:58:12.486Z,69.67
2023-04-28T14:00:48.418Z,70.33
2023-04-28T14:03:17.784Z,68.73
2023-04-28T14:05:49.863Z,68.17
2023-04-28T14:08:20.750Z,67.83
2023-04-28T14:10:50.687Z,66.80
2023-04-28T14:13:22.033Z,67.46
2023-04-28T14:15:58.954Z,67.08
2023-04-28T14:18:29.329Z,65.11
2023-04-28T14:20:58.342Z,65.37
2023-04-28T14:23:28.845Z,64.01
2023-04-28T14:25:58.455Z,63.11
2023-04-28T14:28:30.102Z,64.25
2023-04-28T14:30:59.412Z,63.96
2023-04-28T14:33:28.240Z,63.25
2023-04-28T14:35:56.956Z,61.88
2023-04-28T14:38:25.941Z,62.85
2023-04-28T14:40:54.632Z,61.35
2023-04-28T14:43:23.421Z,61.83
2023-04-28T14:45:53.907Z,60.36
2023-04-28T14:48:23.102Z,58.84
2023-04-28T14:50:52.510Z,59.71
2023-04-28T14:53:21.275Z,58.83
2023-04-28T14:55:50.174Z,58.81
2023-04-28T14:58:19.250Z,58.39
2023-04-28T15:00:49.985Z,58.31
2023-04-28T15:03:20.780Z,58.22
2023-04-28T15:05:49.863Z,58.52
2023-04-28T15:08:19.264Z,59.23
2023-04-28T15:10:48.247Z,60.39
2023-04-28T15:13:16.981Z,60.12
2023-04-28T15:15:46.323Z,58.99
2023-04-28T15:18:15.497Z,60.08
2023-04-28T15:20:45.956Z,60.15
2023-04-28T15:23:15.506Z,59.29
2023-04-28T15:25:44.922Z,60.53
2023-04-28T15:28:13.737Z,59.71
2023-04-28T15:30:42.414Z,60.66
2023-04-28T15:33:17.106Z,60.45
2023-04-28T15:35:47.683Z,60.68
2023-04-28T15:38:17.313Z,60.14
2023-04-28T15:40:47.415Z,61.21
2023-04-28T15:43:16.313Z,60.37
2023-04-28T15:45:47.028Z,60.43
2023-04-28T15:48:16.402Z,59.79
2023-04-28T15:50:46.678Z,60.64
2023-04-28T15:53:15.566Z,59.68
2023-04-28T15:55:44.398Z,61.06
2023-04-28T15:58:13.286Z,60.91
2023-04-28T16:00:42.373Z,60.77
2023-04-28T16:03:11.911Z,60.67
2023-04-28T16:05:44.786Z,60.80
2023-04-28T16:08:16.070Z,61.34
2023-04-28T16:10:45.329Z,60.80
2023-04-28T16:13:14.810Z,60.03
2023-04-28T16:15:43.650Z,59.70
2023-04-28T16:18:12.440Z,59.44
2023-04-28T16:20:42.758Z,60.47
2023-04-28T16:23:14.064Z,61.34
2023-04-28T16:25:44.614Z,60.42
2023-04-28T16:28:13.650Z,60.66
2023-04-28T16:30:44.507Z,61.37
2023-04-28T16:33:13.437Z,60.53
2023-04-28T16:35:42.564Z,61.30
2023-04-28T16:38:13.501Z,60.88
2023-04-28T16:40:43.928Z,61.63
2023-04-28T16:43:13.221Z,61.12
2023-04-28T16:45:42.140Z,61.11
2023-04-28T16:48:11.966Z,61.22
2023-04-28T16:50:41.215Z,62.00
2023-04-28T16:53:09.828Z,63.83
2023-04-28T16:55:38.822Z,63.72
2023-04-28T16:58:08.894Z,64.11
2023-04-28T17:00:37.578Z,63.68
2023-04-28T17:03:06.673Z,63.28
2023-04-28T17:05:35.826Z,63.26
2023-04-28T17:08:04.427Z,64.30
2023-04-28T17:10:33.451Z,63.89
2023-04-28T17:13:03.260Z,63.40
2023-04-28T17:15:33.813Z,63.27
2023-04-28T17:18:03.573Z,63.52
2023-04-28T17:20:32.442Z,63.50
2023-04-28T17:23:01.226Z,63.50
2023-04-28T17:25:30.280Z,63.47
2023-04-28T17:28:03.669Z,64.10
2023-04-28T17:30:37.064Z,64.28
2023-04-28T17:33:06.836Z,63.94
2023-04-28T17:35:37.850Z,64.28
2023-04-28T17:38:06.765Z,64.80
2023-04-28T17:40:35.421Z,66.10
2023-04-28T17:43:04.336Z,66.34
2023-04-28T17:45:34.761Z,67.13
2023-04-28T17:48:04.121Z,66.75
2023-04-28T17:50:33.723Z,66.98
2023-04-28T17:53:02.688Z,67.49
2023-04-28T17:55:32.128Z,68.41
2023-04-28T17:58:01.455Z,69.00
2023-04-28T18:00:30.332Z,69.30
2023-04-28T18:03:02.523Z,69.09
2023-04-28T18:05:32.180Z,69.17
2023-04-28T18:08:04.055Z,69.23
2023-04-28T18:10:32.943Z,68.55
2023-04-28T18:14:12.513Z,68.64
2023-04-28T18:16:41.861Z,69.63
2023-04-28T18:19:12.724Z,69.50
2023-04-28T18:21:42.163Z,69.96
2023-04-28T18:24:12.445Z,69.49
2023-04-28T18:26:42.667Z,69.62
2023-04-28T18:29:12.097Z,68.54
2023-04-28T18:31:42.819Z,68.61
2023-04-28T18:34:15.576Z,69.25
2023-04-28T18:36:44.986Z,69.77
2023-04-28T18:39:15.491Z,70.00
2023-04-28T18:41:45.095Z,70.80
2023-04-28T18:44:14.090Z,71.02
2023-04-28T18:46:43.454Z,70.32
2023-04-28T18:49:13.560Z,70.46
2023-04-28T18:51:42.319Z,70.60
2023-04-28T18:54:11.985Z,70.88
2023-04-28T18:56:41.446Z,70.81
2023-04-28T18:59:10.466Z,71.23
2023-04-28T19:01:39.681Z,71.87
2023-04-28T19:04:08.911Z,71.83
2023-04-28T19:06:39.670Z,72.22
2023-04-28T19:09:08.551Z,72.56
2023-04-28T19:11:37.455Z,73.75
2023-04-28T19:14:06.691Z,74.45
2023-04-28T19:16:35.547Z,73.29
2023-04-28T19:19:04.382Z,73.15
2023-04-28T19:21:36.067Z,72.83
2023-04-28T19:24:07.121Z,73.20
2023-04-28T19:26:35.989Z,73.15
2023-04-28T19:29:04.955Z,72.99
2023-04-28T19:31:33.911Z,74.23
2023-04-28T19:34:03.885Z,73.68
2023-04-28T19:36:33.334Z,73.68
2023-04-28T19:39:02.504Z,74.16
2023-04-28T19:41:32.766Z,74.10
2023-04-28T19:44:05.623Z,74.13
2023-04-28T19:46:34.692Z,74.16
2023-04-28T19:49:03.649Z,74.29
2023-04-28T19:51:33.118Z,74.57
2023-04-28T19:54:02.118Z,74.49
2023-04-28T19:56:33.995Z,75.30
2023-04-28T19:59:03.111Z,75.74
2023-04-28T20:01:32.077Z,75.37
2023-04-28T20:04:01.601Z,75.60
2023-04-28T20:06:31.008Z,75.88
2023-04-28T20:09:00.148Z,75.58
2023-04-28T20:11:28.954Z,74.99
2023-04-28T20:13:59.461Z,75.35
2023-04-28T20:16:28.806Z,75.20
2023-04-28T20:18:57.867Z,74.90
2023-04-28T20:21:28.894Z,75.00
2023-04-28T20:23:57.964Z,75.30
2023-04-28T20:26:26.678Z,75.11
2023-04-28T20:28:57.169Z,75.31
2023-04-28T20:31:27.505Z,75.61
2023-04-28T20:33:56.213Z,75.83
2023-04-28T20:36:24.903Z,75.09
2023-04-28T20:38:53.674Z,74.95
2023-04-28T20:41:22.785Z,74.48
2023-04-28T20:43:52.460Z,75.53
2023-04-28T20:46:21.481Z,76.00
2023-04-28T20:48:51.648Z,76.79
2023-04-28T20:51:20.665Z,77.23
2023-04-28T20:53:49.584Z,77.62
2023-04-28T20:56:18.422Z,78.27
2023-04-28T20:58:47.962Z,78.68
2023-04-28T21:01:16.622Z,77.99
2023-04-28T21:03:45.431Z,77.75
2023-04-28T21:06:15.667Z,76.85
2023-04-28T21:08:45.219Z,76.75
2023-04-28T21:11:14.531Z,77.34
2023-04-28T21:13:44.570Z,78.32
2023-04-28T21:16:20.211Z,78.18
2023-04-28T21:18:50.491Z,78.22
2023-04-28T21:21:20.581Z,77.66
2023-04-28T21:23:49.494Z,78.50
2023-04-28T21:26:20.747Z,78.78
2023-04-28T21:28:50.256Z,78.24
2023-04-28T21:31:18.979Z,77.86
2023-04-28T21:33:47.870Z,78.30
2023-04-28T21:36:16.600Z,77.79
2023-04-28T21:38:46.772Z,79.06
2023-04-28T21:41:15.489Z,78.30
2023-04-28T21:43:44.274Z,79.17
2023-04-28T21:46:13.178Z,79.09
2023-04-28T21:48:42.005Z,78.30
2023-04-28T21:51:10.704Z,78.84
2023-04-28T21:53:39.830Z,78.41
2023-04-28T21:56:10.177Z,78.30
2023-04-28T21:58:39.322Z,78.15
2023-04-28T22:01:08.443Z,78.57
2023-04-28T22:03:37.944Z,79.00
2023-04-28T22:06:07.004Z,79.07
2023-04-28T22:08:36.030Z,79.08
2023-04-28T22:11:06.816Z,79.40
2023-04-28T22:13:36.926Z,79.95
2023-04-28T22:16:06.523Z,79.68
2023-04-28T22:18:35.240Z,80.28
2023-04-28T22:21:03.936Z,79.66
2023-04-28T22:23:32.728Z,79.84
2023-04-28T22:26:01.692Z,79.40
2023-04-28T22:28:30.392Z,79.97
2023-04-28T22:31:00.549Z,80.72
2023-04-28T22:33:29.329Z,80.77
2023-04-28T22:35:58.022Z,80.04
2023-04-28T22:38:27.031Z,80.30
2023-04-28T22:40:56.104Z,80.18
2023-04-28T22:43:24.818Z,80.30
2023-04-28T22:45:53.612Z,79.96
2023-04-28T22:48:23.755Z,80.10
2023-04-28T22:50:52.434Z,80.09
2023-04-28T22:53:21.274Z,80.02
2023-04-28T22:55:50.965Z,80.10
2023-04-28T22:58:19.728Z,80.37
2023-04-28T23:00:48.481Z,80.95
2023-04-28T23:03:17.253Z,80.62
2023-04-28T23:05:48.384Z,81.10
2023-04-28T23:08:17.160Z,80.76
2023-04-28T23:10:46.465Z,80.60
2023-04-28T23:13:15.139Z,80.68
2023-04-28T23:15:43.943Z,80.59
2023-04-28T23:18:12.624Z,81.84
2023-04-28T23:20:41.345Z,82.62
2023-04-28T23:23:11.461Z,81.75
2023-04-28T23:25:43.151Z,81.17
2023-04-28T23:28:11.838Z,83.20
2023-04-28T23:30:40.868Z,82.56
2023-04-28T23:33:10.988Z,81.99
2023-04-28T23:35:39.709Z,82.40
2023-04-28T23:38:08.363Z,83.34
2023-04-28T23:40:38.438Z,83.69
2023-04-28T23:43:07.336Z,82.73
2023-04-28T23:45:36.000Z,82.46
2023-04-28T23:48:04.931Z,81.56
2023-04-28T23:50:33.548Z,81.84
2023-04-28T23:53:02.223Z,81.99
2023-04-28T23:55:31.603Z,83.25
2023-04-28T23:58:01.653Z,83.60
